Time;durP1;ratioP1;P1;durP2;ratioP2;P2;SDS_P1;SDS_P2;PMS_P1;PMS_P2;Temp;Humidity;BMP_temperature;BMP_pressure;BME280_temperature;BME280_humidity;BME280_pressure;Samples;Min_cycle;Max_cycle;Signal;HPM_P1;HPM_P2
2024/02/22 00:01:20;;;;;;;6.10;2.63;;;13.30;55.20;;;;;;5056678;28;20213;-71
2024/02/22 00:03:45;;;;;;;4.87;1.90;;;13.30;55.40;;;;;;5067760;28;20210;-74
2024/02/22 00:06:11;;;;;;;7.73;2.10;;;13.30;55.80;;;;;;5059017;28;20791;-73
2024/02/22 00:08:39;;;;;;;6.23;2.33;;;13.20;56.20;;;;;;5065575;28;20275;-75
2024/02/22 00:11:04;;;;;;;2.90;2.00;;;13.20;56.50;;;;;;5056991;28;20196;-74
2024/02/22 00:13:30;;;;;;;6.00;2.20;;;13.10;57.00;;;;;;5061145;28;20470;-73
2024/02/22 00:15:55;;;;;;;2.90;2.03;;;13.10;57.40;;;;;;5058241;28;20190;-76
2024/02/22 00:18:21;;;;;;;9.63;2.53;;;13.00;57.70;;;;;;5063814;28;20563;-73
2024/02/22 00:20:47;;;;;;;5.27;2.40;;;13.00;57.80;;;;;;5056220;28;20208;-74
2024/02/22 00:23:12;;;;;;;3.97;2.17;;;13.00;58.20;;;;;;5062598;28;20220;-74
2024/02/22 00:25:38;;;;;;;3.43;2.23;;;12.90;58.50;;;;;;5059953;28;20192;-74
2024/02/22 00:28:04;;;;;;;2.80;2.07;;;12.90;58.80;;;;;;5059800;28;20203;-75
2024/02/22 00:30:29;;;;;;;3.30;2.30;;;12.90;58.90;;;;;;5060325;28;20204;-72
2024/02/22 00:32:55;;;;;;;2.97;2.30;;;12.90;58.90;;;;;;5066604;28;20215;-72
2024/02/22 00:35:20;;;;;;;2.70;2.17;;;12.80;59.20;;;;;;5058373;28;20310;-74
2024/02/22 00:37:46;;;;;;;3.53;2.10;;;12.70;59.60;;;;;;5065790;28;20260;-75
2024/02/22 00:40:15;;;;;;;5.30;2.27;;;12.70;59.90;;;;;;5055121;28;20188;-75
2024/02/22 00:42:41;;;;;;;3.90;2.20;;;12.70;60.00;;;;;;5061427;28;20222;-72
2024/02/22 00:45:07;;;;;;;4.60;2.30;;;12.60;60.60;;;;;;5061796;28;20430;-73
2024/02/22 00:47:33;;;;;;;8.87;1.90;;;12.60;61.00;;;;;;5062237;28;20426;-72
2024/02/22 00:49:59;;;;;;;2.00;1.30;;;12.50;61.50;;;;;;5066528;28;20652;-75
2024/02/22 00:52:24;;;;;;;3.90;2.27;;;12.40;61.70;;;;;;5074826;28;20201;-73
2024/02/22 00:54:50;;;;;;;3.10;2.23;;;12.40;62.00;;;;;;5057835;28;20172;-74
2024/02/22 00:57:16;;;;;;;4.83;2.33;;;12.40;62.50;;;;;;5063109;28;20195;-75
2024/02/22 00:59:41;;;;;;;2.97;1.77;;;12.30;62.90;;;;;;5068356;28;20410;-74
2024/02/22 01:02:07;;;;;;;4.10;2.20;;;12.30;63.40;;;;;;5054598;28;20220;-72
2024/02/22 01:04:33;;;;;;;2.63;1.40;;;12.30;63.50;;;;;;5061588;28;20228;-74
2024/02/22 01:06:59;;;;;;;4.47;1.63;;;12.30;64.10;;;;;;5065021;28;20538;-72
2024/02/22 01:09:25;;;;;;;2.00;1.90;;;12.20;64.40;;;;;;5062856;28;20188;-71
2024/02/22 01:11:50;;;;;;;3.23;1.80;;;12.20;64.40;;;;;;5063582;28;20544;-72
2024/02/22 01:14:16;;;;;;;4.83;2.30;;;12.10;65.10;;;;;;5070722;28;20196;-74
2024/02/22 01:16:43;;;;;;;2.60;2.17;;;12.10;65.30;;;;;;5061367;28;20636;-73
2024/02/22 01:19:09;;;;;;;5.13;1.93;;;12.00;66.00;;;;;;5066787;28;20263;-72
2024/02/22 01:21:34;;;;;;;4.90;1.90;;;11.90;66.60;;;;;;5056071;28;20611;-72
2024/02/22 01:24:00;;;;;;;4.27;2.00;;;11.80;66.70;;;;;;5059172;28;20973;-74
2024/02/22 01:26:26;;;;;;;4.33;1.90;;;11.80;67.00;;;;;;5059974;28;20205;-72
2024/02/22 01:28:51;;;;;;;3.63;1.83;;;11.80;67.20;;;;;;5064446;28;20180;-71
2024/02/22 01:31:17;;;;;;;2.03;1.73;;;11.70;67.30;;;;;;5051738;28;20230;-76
2024/02/22 01:33:44;;;;;;;3.50;2.13;;;11.70;67.30;;;;;;5060309;28;20187;-72
2024/02/22 01:36:11;;;;;;;4.50;2.60;;;11.60;67.50;;;;;;5061608;28;20627;-75
2024/02/22 01:38:37;;;;;;;5.20;1.60;;;11.60;67.60;;;;;;5062499;28;20426;-72
2024/02/22 01:41:03;;;;;;;3.13;2.10;;;11.60;67.70;;;;;;5059514;28;20970;-72
2024/02/22 01:43:28;;;;;;;4.13;1.97;;;11.60;67.70;;;;;;5062461;28;20473;-74
2024/02/22 01:45:57;;;;;;;3.00;1.83;;;11.50;67.90;;;;;;5060767;28;20180;-71
2024/02/22 01:48:23;;;;;;;2.70;1.80;;;11.50;67.90;;;;;;5064638;28;20679;-72
2024/02/22 01:50:52;;;;;;;2.77;1.70;;;11.50;68.20;;;;;;5060474;28;20451;-75
2024/02/22 01:53:26;;;;;;;3.30;1.80;;;11.40;68.30;;;;;;5070237;28;20179;-73
2024/02/22 01:55:58;;;;;;;4.00;1.50;;;11.40;68.50;;;;;;5068164;28;20521;-75
2024/02/22 01:58:31;;;;;;;2.53;1.67;;;11.40;68.50;;;;;;5064434;28;20452;-73
2024/02/22 02:01:02;;;;;;;3.43;2.07;;;11.40;68.60;;;;;;5055515;28;20459;-72
2024/02/22 02:03:28;;;;;;;3.07;2.00;;;11.40;68.60;;;;;;5061400;28;21049;-72
2024/02/22 02:05:55;;;;;;;3.30;1.93;;;11.40;68.80;;;;;;5061429;28;20421;-72
2024/02/22 02:08:21;;;;;;;4.00;1.77;;;11.40;68.90;;;;;;5057838;28;20485;-73
2024/02/22 02:10:47;;;;;;;2.50;1.50;;;11.30;69.10;;;;;;5059420;28;20454;-76
2024/02/22 02:13:13;;;;;;;3.50;2.20;;;11.20;69.40;;;;;;5062829;28;20253;-73
2024/02/22 02:15:39;;;;;;;3.80;1.60;;;11.20;69.50;;;;;;5063183;28;20425;-72
2024/02/22 02:18:05;;;;;;;5.00;2.37;;;11.20;69.50;;;;;;5053931;28;20418;-75
2024/02/22 02:20:58;;;;;;;3.27;2.30;;;11.20;69.70;;;;;;5062002;28;20204;-73
2024/02/22 02:23:42;;;;;;;3.70;2.10;;;11.20;69.80;;;;;;5056687;28;20477;-74
2024/02/22 02:26:09;;;;;;;3.00;1.53;;;11.20;70.10;;;;;;5057085;28;20438;-73
2024/02/22 02:28:34;;;;;;;2.63;1.43;;;11.10;70.20;;;;;;5059183;28;20951;-73
2024/02/22 02:31:00;;;;;;;3.13;2.27;;;11.10;70.40;;;;;;5055178;28;20470;-73
2024/02/22 02:33:25;;;;;;;2.03;1.30;;;11.10;70.40;;;;;;5061301;28;20208;-72
2024/02/22 02:35:52;;;;;;;2.77;1.50;;;11.10;70.40;;;;;;5060540;28;20207;-72
2024/02/22 02:38:17;;;;;;;2.70;1.83;;;11.10;70.40;;;;;;5060832;28;20605;-77
2024/02/22 02:40:43;;;;;;;6.33;2.00;;;11.10;70.50;;;;;;5059120;28;20498;-73
2024/02/22 02:43:09;;;;;;;5.20;1.67;;;11.00;71.00;;;;;;5068127;28;20643;-74
2024/02/22 02:45:34;;;;;;;3.90;1.67;;;11.00;71.10;;;;;;5068818;28;20214;-71
2024/02/22 02:48:00;;;;;;;5.70;1.97;;;11.00;71.10;;;;;;5061620;28;20617;-73
2024/02/22 02:50:26;;;;;;;1.60;1.10;;;11.00;71.30;;;;;;5054833;28;20295;-73
2024/02/22 02:52:53;;;;;;;2.10;1.30;;;11.00;71.70;;;;;;5061773;28;20184;-71
2024/02/22 02:55:19;;;;;;;1.77;1.10;;;11.00;72.10;;;;;;5059599;28;20555;-74
2024/02/22 02:57:45;;;;;;;1.57;1.20;;;10.90;72.40;;;;;;5075625;28;20956;-75
2024/02/22 03:00:13;;;;;;;1.83;1.13;;;10.80;72.70;;;;;;5056561;28;20419;-75
2024/02/22 03:02:42;;;;;;;1.83;1.20;;;10.80;72.90;;;;;;5061210;28;20474;-74
2024/02/22 03:05:08;;;;;;;2.00;1.60;;;10.80;73.00;;;;;;5061662;28;20900;-73
2024/02/22 03:07:35;;;;;;;3.37;1.33;;;10.80;73.50;;;;;;5056829;28;20484;-73
2024/02/22 03:10:01;;;;;;;1.50;1.20;;;10.80;73.60;;;;;;5056848;28;20427;-71
2024/02/22 03:12:26;;;;;;;2.10;1.70;;;10.80;73.90;;;;;;5061361;28;20512;-72
2024/02/22 03:14:52;;;;;;;3.30;1.30;;;10.80;73.90;;;;;;5063998;28;20567;-72
2024/02/22 03:17:18;;;;;;;2.23;1.50;;;10.70;74.20;;;;;;5065925;28;20260;-73
2024/02/22 03:19:44;;;;;;;1.50;1.00;;;10.70;74.80;;;;;;5062700;28;20176;-73
2024/02/22 03:22:10;;;;;;;2.07;1.23;;;10.60;75.40;;;;;;5069340;28;20467;-74
2024/02/22 03:24:36;;;;;;;3.67;1.50;;;10.60;75.70;;;;;;5068642;28;20188;-74
2024/02/22 03:27:03;;;;;;;1.60;1.50;;;10.50;75.90;;;;;;5070591;28;20427;-73
2024/02/22 03:29:29;;;;;;;1.70;1.30;;;10.50;75.80;;;;;;5073161;28;20554;-72
2024/02/22 03:31:55;;;;;;;5.10;1.37;;;10.50;75.90;;;;;;5071946;28;20614;-71
2024/02/22 03:34:21;;;;;;;3.00;1.60;;;10.50;76.20;;;;;;5063502;28;20487;-72
2024/02/22 03:36:48;;;;;;;3.93;1.10;;;10.50;76.10;;;;;;5067682;28;20422;-74
2024/02/22 03:39:14;;;;;;;2.83;1.60;;;10.50;76.20;;;;;;5065486;28;20423;-73
2024/02/22 03:41:39;;;;;;;4.37;1.97;;;10.40;76.50;;;;;;5061276;28;20464;-72
2024/02/22 03:44:05;;;;;;;3.57;1.70;;;10.40;76.20;;;;;;5063923;28;20786;-73
2024/02/22 03:46:31;;;;;;;3.60;1.70;;;10.40;76.20;;;;;;5060602;28;20575;-72
2024/02/22 03:48:56;;;;;;;2.77;1.50;;;10.40;76.20;;;;;;5070893;28;20222;-72
2024/02/22 03:51:22;;;;;;;2.53;1.97;;;10.40;76.70;;;;;;5057504;28;20200;-72
2024/02/22 03:53:51;;;;;;;2.07;1.57;;;10.30;77.40;;;;;;5062740;28;20180;-73
2024/02/22 03:56:17;;;;;;;3.50;1.70;;;10.30;78.10;;;;;;5061612;28;20196;-76
2024/02/22 03:58:43;;;;;;;1.80;1.30;;;10.20;78.90;;;;;;5061843;28;20463;-72
2024/02/22 04:01:08;;;;;;;2.70;1.43;;;10.10;79.60;;;;;;5055693;28;20548;-73
2024/02/22 04:03:34;;;;;;;2.93;1.53;;;10.00;80.20;;;;;;5067836;28;20341;-74
2024/02/22 04:06:00;;;;;;;1.90;1.30;;;9.90;80.80;;;;;;5064789;28;20545;-73
2024/02/22 04:08:26;;;;;;;2.50;1.70;;;9.90;81.20;;;;;;5068085;28;20195;-73
2024/02/22 04:10:52;;;;;;;2.50;1.90;;;9.80;81.80;;;;;;5066553;28;20493;-73
2024/02/22 04:13:17;;;;;;;4.83;1.87;;;9.80;81.90;;;;;;5070001;28;20181;-72
2024/02/22 04:15:43;;;;;;;2.40;1.60;;;9.70;82.80;;;;;;5060481;28;20198;-73
2024/02/22 04:18:09;;;;;;;4.60;1.90;;;9.70;82.50;;;;;;5063088;28;20240;-73
2024/02/22 04:20:35;;;;;;;3.10;1.57;;;9.70;82.40;;;;;;5059548;28;21037;-72
2024/02/22 04:23:01;;;;;;;2.63;1.53;;;9.70;82.50;;;;;;5064279;28;20227;-74
2024/02/22 04:25:26;;;;;;;2.27;1.20;;;9.70;82.50;;;;;;5063270;28;20208;-73
2024/02/22 04:27:52;;;;;;;2.27;1.60;;;9.70;82.40;;;;;;5069934;28;20942;-72
2024/02/22 04:30:18;;;;;;;2.53;1.50;;;9.70;82.40;;;;;;5070555;28;20211;-75
2024/02/22 04:32:46;;;;;;;2.93;1.80;;;9.80;82.10;;;;;;5069468;28;20210;-72
2024/02/22 04:35:12;;;;;;;2.83;1.60;;;9.80;82.10;;;;;;5064660;28;20419;-74
2024/02/22 04:37:38;;;;;;;3.20;1.80;;;9.80;82.10;;;;;;5070230;28;20490;-73
2024/02/22 04:40:05;;;;;;;2.27;1.70;;;9.80;82.10;;;;;;5073415;28;20229;-73
2024/02/22 04:42:31;;;;;;;2.57;1.93;;;9.80;82.20;;;;;;5071990;28;20762;-73
2024/02/22 04:44:56;;;;;;;1.70;1.30;;;9.80;82.20;;;;;;5072833;28;20443;-73
2024/02/22 04:47:22;;;;;;;2.20;1.53;;;9.80;82.70;;;;;;5062330;28;20194;-72
2024/02/22 04:49:48;;;;;;;3.10;1.70;;;9.70;82.80;;;;;;5067419;28;20204;-74
2024/02/22 04:52:13;;;;;;;3.00;1.60;;;9.70;82.80;;;;;;5068509;28;20621;-72
2024/02/22 04:54:39;;;;;;;3.87;1.50;;;9.80;82.70;;;;;;5071847;28;20426;-75
2024/02/22 04:57:05;;;;;;;3.13;1.60;;;9.80;82.70;;;;;;5075182;28;20210;-74
2024/02/22 04:59:30;;;;;;;5.87;1.70;;;9.80;82.20;;;;;;5073565;28;20183;-74
2024/02/22 05:01:56;;;;;;;2.23;1.23;;;9.80;82.40;;;;;;5068727;28;20244;-72
2024/02/22 05:04:21;;;;;;;2.53;1.47;;;9.90;82.20;;;;;;5063377;28;20184;-73
2024/02/22 05:06:47;;;;;;;2.80;1.43;;;9.80;82.40;;;;;;5059738;28;20231;-74
2024/02/22 05:09:13;;;;;;;2.00;1.47;;;9.90;82.20;;;;;;5065077;28;20180;-73
2024/02/22 05:11:48;;;;;;;2.23;1.30;;;9.80;82.80;;;;;;5056650;28;20206;-74
2024/02/22 05:14:15;;;;;;;1.70;1.20;;;9.80;83.30;;;;;;5066698;28;20424;-72
2024/02/22 05:16:41;;;;;;;3.97;1.43;;;9.80;83.40;;;;;;5073528;28;20422;-73
2024/02/22 05:19:07;;;;;;;2.23;1.50;;;9.80;83.60;;;;;;5070507;28;20431;-75
2024/02/22 05:21:32;;;;;;;1.97;1.50;;;9.70;84.00;;;;;;5062111;28;21094;-73
2024/02/22 05:23:58;;;;;;;3.07;1.90;;;9.70;84.40;;;;;;5070577;28;20458;-74
2024/02/22 05:26:23;;;;;;;3.57;1.77;;;9.60;85.00;;;;;;5070005;28;20183;-72
2024/02/22 05:28:49;;;;;;;3.00;1.50;;;9.50;85.50;;;;;;5075220;28;20301;-72
2024/02/22 05:31:23;;;;;;;3.40;1.40;;;9.50;85.90;;;;;;5056857;28;20216;-74
2024/02/22 05:33:49;;;;;;;3.20;1.50;;;9.40;86.20;;;;;;5063088;28;20194;-74
2024/02/22 05:36:18;;;;;;;3.50;2.23;;;9.40;86.50;;;;;;5063900;28;20425;-74
2024/02/22 05:38:44;;;;;;;2.13;1.63;;;9.30;86.60;;;;;;5065992;28;20495;-73
2024/02/22 05:41:10;;;;;;;3.37;1.90;;;9.30;86.80;;;;;;5059657;28;20458;-73
2024/02/22 05:43:35;;;;;;;3.00;1.63;;;9.40;86.80;;;;;;5066320;28;20237;-74
2024/02/22 05:46:01;;;;;;;2.53;1.30;;;9.40;86.60;;;;;;5066165;28;20505;-72
2024/02/22 05:48:27;;;;;;;3.17;1.50;;;9.30;86.60;;;;;;5060294;28;20280;-74
2024/02/22 05:50:52;;;;;;;2.17;1.63;;;9.40;86.50;;;;;;5066057;28;20204;-72
2024/02/22 05:53:18;;;;;;;3.27;2.00;;;9.40;86.60;;;;;;5073651;28;20177;-74
2024/02/22 05:55:44;;;;;;;1.93;1.40;;;9.40;86.60;;;;;;5058473;28;20186;-73
2024/02/22 05:58:09;;;;;;;2.27;1.70;;;9.40;86.80;;;;;;5074270;28;20218;-74
2024/02/22 06:00:37;;;;;;;2.50;1.73;;;9.40;86.50;;;;;;5062261;28;22735;-73
2024/02/22 06:03:04;;;;;;;3.00;1.80;;;9.40;86.60;;;;;;5074894;28;20248;-71
2024/02/22 06:05:29;;;;;;;3.50;1.77;;;9.40;86.60;;;;;;5073397;28;20967;-73
2024/02/22 06:07:55;;;;;;;2.90;1.60;;;9.40;86.80;;;;;;5057010;28;20463;-74
2024/02/22 06:10:21;;;;;;;2.40;1.30;;;9.40;86.60;;;;;;5060698;28;20263;-78
2024/02/22 06:12:47;;;;;;;8.27;1.67;;;9.40;86.60;;;;;;5053902;28;20358;-74
2024/02/22 06:15:12;;;;;;;2.00;1.50;;;9.40;86.90;;;;;;5058009;28;20513;-73
2024/02/22 06:17:38;;;;;;;2.20;1.60;;;9.40;86.90;;;;;;5056620;28;20191;-72
2024/02/22 06:20:05;;;;;;;3.27;1.73;;;9.40;86.60;;;;;;5062633;28;20886;-73
2024/02/22 06:22:32;;;;;;;2.67;1.50;;;9.50;86.60;;;;;;5054033;28;20246;-74
2024/02/22 06:24:57;;;;;;;2.37;1.83;;;9.50;86.80;;;;;;5064419;28;20484;-74
2024/02/22 06:27:23;;;;;;;2.30;1.33;;;9.50;86.20;;;;;;5060444;28;20422;-73
2024/02/22 06:29:48;;;;;;;3.17;1.50;;;9.60;86.50;;;;;;5063903;28;20182;-72
2024/02/22 06:32:14;;;;;;;1.63;1.13;;;9.60;86.50;;;;;;5059357;28;20226;-72
2024/02/22 06:34:40;;;;;;;2.27;1.50;;;9.60;86.20;;;;;;5061834;28;20176;-75
2024/02/22 06:37:05;;;;;;;2.43;1.43;;;9.60;86.50;;;;;;5061230;28;20266;-73
2024/02/22 06:39:31;;;;;;;3.00;1.73;;;9.60;86.60;;;;;;5062873;28;20776;-72
2024/02/22 06:41:56;;;;;;;2.20;1.40;;;9.50;86.50;;;;;;5065383;28;20211;-71
2024/02/22 06:44:22;;;;;;;1.97;1.53;;;9.50;86.50;;;;;;5058553;28;20173;-74
2024/02/22 06:46:48;;;;;;;2.30;1.17;;;9.50;86.80;;;;;;5059457;28;20187;-74
2024/02/22 06:49:15;;;;;;;3.40;1.80;;;9.50;86.80;;;;;;5067221;28;20234;-76
2024/02/22 06:51:42;;;;;;;2.50;1.60;;;9.60;86.60;;;;;;5060168;28;20253;-74
2024/02/22 06:54:08;;;;;;;3.10;1.70;;;9.60;86.60;;;;;;5062314;28;20423;-76
2024/02/22 06:56:33;;;;;;;2.07;1.30;;;9.60;86.80;;;;;;5065861;28;20912;-76
2024/02/22 06:58:59;;;;;;;3.80;1.80;;;9.60;86.50;;;;;;5057279;28;20553;-72
2024/02/22 07:01:24;;;;;;;3.40;2.00;;;9.60;86.50;;;;;;5068590;28;20592;-72
2024/02/22 07:03:50;;;;;;;2.90;1.80;;;9.60;86.50;;;;;;5066717;28;20220;-72
2024/02/22 07:06:15;;;;;;;3.30;2.10;;;9.60;86.80;;;;;;5069543;28;20180;-76
2024/02/22 07:08:41;;;;;;;2.80;1.87;;;9.50;86.80;;;;;;5060300;28;20199;-72
2024/02/22 07:11:11;;;;;;;2.83;1.83;;;9.60;86.80;;;;;;5064915;28;20207;-75
2024/02/22 07:13:37;;;;;;;6.37;2.70;;;9.60;86.50;;;;;;5062402;28;20196;-72
2024/02/22 07:16:03;;;;;;;5.03;2.80;;;9.60;86.50;;;;;;5074875;28;20459;-73
2024/02/22 07:18:28;;;;;;;7.17;3.60;;;9.60;86.60;;;;;;5073162;28;20191;-74
2024/02/22 07:20:57;;;;;;;5.03;3.00;;;9.60;86.80;;;;;;5071904;28;20547;-74
2024/02/22 07:23:22;;;;;;;6.63;2.60;;;9.60;86.80;;;;;;5068935;28;20215;-74
2024/02/22 07:25:48;;;;;;;3.97;3.30;;;9.60;86.90;;;;;;5070220;28;20414;-73
2024/02/22 07:28:14;;;;;;;5.43;3.00;;;9.50;87.10;;;;;;5063157;28;20196;-75
2024/02/22 07:30:41;;;;;;;5.47;2.93;;;9.60;86.90;;;;;;5082372;28;20200;-78
2024/02/22 07:33:07;;;;;;;4.00;2.60;;;9.60;87.00;;;;;;5072427;28;20410;-74
2024/02/22 07:35:33;;;;;;;5.60;3.00;;;9.50;87.10;;;;;;5070600;28;20929;-75
2024/02/22 07:37:59;;;;;;;4.20;2.67;;;9.60;86.90;;;;;;5074716;28;20658;-75
2024/02/22 07:40:24;;;;;;;4.10;2.40;;;9.60;87.00;;;;;;5071605;28;20445;-72
2024/02/22 07:42:50;;;;;;;6.83;2.93;;;9.60;86.80;;;;;;5064310;28;20231;-76
2024/02/22 07:45:16;;;;;;;3.97;2.20;;;9.60;86.90;;;;;;5070657;28;20171;-73
2024/02/22 07:47:42;;;;;;;4.80;2.67;;;9.60;86.80;;;;;;5061634;28;20184;-74
2024/02/22 07:50:10;;;;;;;3.50;2.17;;;9.60;86.80;;;;;;5064033;28;20184;-74
2024/02/22 07:52:39;;;;;;;5.57;2.70;;;9.70;86.80;;;;;;5070090;28;20446;-77
2024/02/22 07:55:06;;;;;;;3.63;2.10;;;9.70;86.60;;;;;;5065890;28;20422;-73
2024/02/22 07:57:31;;;;;;;10.20;3.23;;;9.70;86.20;;;;;;5069172;28;20441;-73
2024/02/22 07:59:57;;;;;;;5.23;2.77;;;9.70;85.90;;;;;;5085540;28;20426;-72
2024/02/22 08:02:23;;;;;;;4.30;2.17;;;9.80;85.70;;;;;;5074915;28;20243;-73
2024/02/22 08:04:50;;;;;;;3.77;1.87;;;9.80;85.50;;;;;;5068979;28;20216;-73
2024/02/22 08:07:18;;;;;;;1.93;1.60;;;9.80;85.50;;;;;;5069361;28;20414;-73
2024/02/22 08:09:44;;;;;;;2.70;1.53;;;9.80;85.50;;;;;;5065278;28;20411;-75
2024/02/22 08:12:10;;;;;;;1.40;1.20;;;9.90;85.30;;;;;;5061524;28;21139;-75
2024/02/22 08:14:36;;;;;;;6.17;1.60;;;9.90;85.20;;;;;;5063029;28;20497;-73
2024/02/22 08:17:01;;;;;;;4.90;1.27;;;9.90;85.20;;;;;;5061692;28;20950;-73
2024/02/22 08:19:27;;;;;;;3.10;1.33;;;9.90;85.20;;;;;;5061709;28;20268;-72
2024/02/22 08:21:53;;;;;;;1.83;1.10;;;9.90;85.00;;;;;;5067629;28;20200;-74
2024/02/22 08:24:21;;;;;;;3.63;1.80;;;10.00;85.20;;;;;;5058098;28;20532;-75
2024/02/22 08:26:46;;;;;;;1.57;1.10;;;10.00;85.20;;;;;;5065150;28;20553;-77
2024/02/22 08:29:12;;;;;;;2.37;1.37;;;9.90;85.20;;;;;;5063539;28;20506;-73
2024/02/22 08:31:37;;;;;;;5.13;1.53;;;9.90;85.20;;;;;;5068152;28;20290;-72
2024/02/22 08:34:03;;;;;;;5.10;1.50;;;9.90;85.20;;;;;;5066430;28;20648;-72
2024/02/22 08:36:28;;;;;;;2.20;1.10;;;10.00;85.00;;;;;;5066778;28;20192;-73
2024/02/22 08:38:54;;;;;;;2.60;1.40;;;10.00;85.00;;;;;;5065170;28;20258;-73
2024/02/22 08:41:22;;;;;;;1.60;1.10;;;10.00;85.00;;;;;;5057253;28;20196;-74
2024/02/22 08:43:47;;;;;;;3.63;1.20;;;10.00;85.20;;;;;;5057991;28;20219;-72
2024/02/22 08:46:13;;;;;;;1.73;1.07;;;10.00;85.30;;;;;;5066728;28;21004;-73
2024/02/22 08:48:39;;;;;;;2.90;1.17;;;10.00;85.00;;;;;;5065204;28;20255;-74
2024/02/22 08:51:04;;;;;;;3.10;1.60;;;10.10;84.60;;;;;;5058231;28;20220;-73
2024/02/22 08:53:30;;;;;;;3.70;1.50;;;10.10;84.40;;;;;;5063731;28;20190;-75
2024/02/22 08:55:55;;;;;;;3.27;1.10;;;10.20;84.00;;;;;;5059938;28;20177;-73
2024/02/22 08:58:21;;;;;;;5.00;1.23;;;10.20;84.10;;;;;;5065569;28;21049;-75
2024/02/22 09:00:47;;;;;;;2.90;1.30;;;10.30;83.80;;;;;;5062082;28;20208;-76
2024/02/22 09:03:13;;;;;;;1.20;0.83;;;10.30;83.70;;;;;;5061124;28;20261;-77
2024/02/22 09:05:41;;;;;;;2.60;1.00;;;10.40;83.10;;;;;;5067359;28;20788;-73
2024/02/22 09:08:06;;;;;;;2.23;1.00;;;10.50;83.10;;;;;;5072270;28;20300;-73
2024/02/22 09:10:32;;;;;;;1.50;0.77;;;10.50;82.80;;;;;;5062492;28;20501;-74
2024/02/22 09:12:58;;;;;;;1.30;0.90;;;10.60;82.70;;;;;;5077325;28;20425;-74
2024/02/22 09:15:23;;;;;;;0.90;0.80;;;10.60;82.70;;;;;;5061924;28;20176;-75
2024/02/22 09:17:49;;;;;;;1.27;0.90;;;10.70;82.40;;;;;;5071649;28;20214;-75
2024/02/22 09:20:16;;;;;;;2.00;0.87;;;10.70;82.20;;;;;;5064830;28;20184;-74
2024/02/22 09:22:41;;;;;;;1.50;0.80;;;10.70;81.90;;;;;;5072906;28;20280;-72
2024/02/22 09:25:08;;;;;;;1.63;0.80;;;10.70;81.80;;;;;;5057675;28;20943;-75
2024/02/22 09:27:35;;;;;;;1.13;0.60;;;10.70;81.90;;;;;;5068461;28;20192;-73
2024/02/22 09:30:03;;;;;;;1.10;0.90;;;10.60;81.70;;;;;;5058392;28;20510;-74
2024/02/22 09:32:29;;;;;;;1.33;0.60;;;10.70;81.70;;;;;;5060838;28;20463;-72
2024/02/22 09:34:55;;;;;;;2.50;1.00;;;10.70;81.50;;;;;;5072163;28;20490;-74
2024/02/22 09:37:21;;;;;;;2.47;0.80;;;10.70;81.70;;;;;;5066718;28;20427;-76
2024/02/22 09:39:49;;;;;;;6.20;0.70;;;10.70;82.10;;;;;;5064546;28;20627;-75
2024/02/22 09:42:15;;;;;;;1.07;0.77;;;10.60;82.80;;;;;;5058326;28;20769;-74
2024/02/22 09:44:41;;;;;;;1.47;0.83;;;10.50;83.70;;;;;;5058955;28;20803;-73
2024/02/22 09:47:08;;;;;;;1.50;1.00;;;10.40;84.10;;;;;;5058799;28;20528;-73
2024/02/22 09:49:34;;;;;;;1.13;0.80;;;10.30;84.60;;;;;;5070762;28;20416;-74
2024/02/22 09:52:00;;;;;;;1.07;0.63;;;10.40;84.70;;;;;;5069309;28;21040;-75
2024/02/22 09:54:25;;;;;;;0.80;0.60;;;10.40;84.30;;;;;;5065944;28;20522;-75
2024/02/22 09:56:51;;;;;;;2.33;0.77;;;10.40;84.40;;;;;;5063559;28;20416;-74
2024/02/22 09:59:18;;;;;;;1.40;0.63;;;10.50;84.00;;;;;;5064069;28;20853;-76
2024/02/22 10:01:44;;;;;;;1.50;0.93;;;10.50;83.30;;;;;;5061335;28;20485;-75
2024/02/22 10:04:19;;;;;;;0.87;0.80;;;10.60;83.60;;;;;;5070403;28;20469;-77
2024/02/22 10:06:48;;;;;;;3.03;0.80;;;10.70;83.00;;;;;;5061187;28;20485;-74
2024/02/22 10:09:14;;;;;;;2.73;1.00;;;10.80;82.70;;;;;;5063028;28;20422;-75
2024/02/22 10:11:44;;;;;;;1.50;0.80;;;10.80;82.50;;;;;;5058723;28;20449;-75
2024/02/22 10:14:13;;;;;;;0.90;0.70;;;10.90;82.70;;;;;;5065389;28;20426;-74
2024/02/22 10:16:40;;;;;;;1.30;0.80;;;11.00;82.50;;;;;;5065141;28;20508;-76
2024/02/22 10:19:06;;;;;;;1.07;0.70;;;11.10;81.90;;;;;;5064245;28;20429;-73
2024/02/22 10:21:32;;;;;;;2.40;0.70;;;11.10;81.70;;;;;;5062799;28;20466;-74
2024/02/22 10:24:02;;;;;;;1.50;0.73;;;11.10;81.20;;;;;;5067931;28;20477;-72
2024/02/22 10:26:28;;;;;;;1.20;0.70;;;11.20;81.10;;;;;;5061128;28;20184;-76
2024/02/22 10:29:09;;;;;;;1.03;0.70;;;11.20;80.90;;;;;;5066134;28;20433;-74
2024/02/22 10:31:47;;;;;;;0.70;0.50;;;11.20;81.10;;;;;;5055029;28;20466;-73
2024/02/22 10:34:14;;;;;;;1.50;0.60;;;11.30;81.10;;;;;;5059061;28;20481;-74
2024/02/22 10:36:40;;;;;;;1.10;0.70;;;11.30;80.80;;;;;;5076145;28;20434;-76
2024/02/22 10:39:09;;;;;;;1.10;0.80;;;11.30;80.60;;;;;;5065193;28;20427;-75
2024/02/22 10:41:35;;;;;;;1.47;0.70;;;11.20;80.90;;;;;;5068225;28;20450;-75
2024/02/22 10:44:05;;;;;;;1.47;0.60;;;11.30;80.90;;;;;;5070925;28;20467;-74
2024/02/22 10:46:38;;;;;;;0.93;0.60;;;11.30;81.10;;;;;;5070963;28;20442;-74
2024/02/22 10:49:11;;;;;;;1.20;0.60;;;11.30;81.20;;;;;;5063925;28;21077;-74
2024/02/22 10:51:39;;;;;;;0.70;0.50;;;11.20;81.70;;;;;;5068903;28;20978;-73
2024/02/22 10:54:09;;;;;;;0.70;0.50;;;11.20;81.80;;;;;;5068647;28;20423;-74
2024/02/22 10:56:38;;;;;;;1.53;0.53;;;11.10;82.10;;;;;;5073530;28;20505;-75
2024/02/22 10:59:08;;;;;;;1.17;0.77;;;11.10;82.40;;;;;;5070459;28;20842;-72
2024/02/22 11:01:37;;;;;;;1.00;0.67;;;11.10;82.80;;;;;;5071580;28;20469;-74
2024/02/22 11:04:03;;;;;;;0.80;0.67;;;11.00;83.30;;;;;;5069431;28;20508;-73
2024/02/22 11:06:36;;;;;;;1.20;0.70;;;11.00;83.40;;;;;;5073302;28;20430;-75
2024/02/22 11:09:04;;;;;;;0.90;0.63;;;10.90;83.80;;;;;;5068527;28;20441;-74
2024/02/22 11:11:31;;;;;;;1.20;0.80;;;10.80;84.40;;;;;;5064595;28;20812;-73
2024/02/22 11:14:02;;;;;;;1.40;0.67;;;10.80;84.70;;;;;;5062467;28;20422;-72
2024/02/22 11:16:35;;;;;;;1.03;0.70;;;10.70;84.90;;;;;;5070059;28;20435;-74
2024/02/22 11:19:16;;;;;;;0.90;0.60;;;10.70;85.50;;;;;;5065098;28;20423;-74
2024/02/22 11:21:42;;;;;;;1.37;0.93;;;10.60;85.90;;;;;;5077065;28;20452;-74
2024/02/22 11:24:21;;;;;;;2.60;0.80;;;10.60;86.00;;;;;;5075980;28;20466;-75
2024/02/22 11:26:47;;;;;;;1.17;0.70;;;10.50;86.50;;;;;;5069532;28;20643;-73
2024/02/22 11:29:13;;;;;;;1.60;0.70;;;10.50;86.60;;;;;;5070707;28;20441;-74
2024/02/22 11:31:39;;;;;;;1.40;0.70;;;10.50;86.60;;;;;;5061657;28;20295;-76
2024/02/22 11:34:04;;;;;;;1.50;0.90;;;10.50;86.90;;;;;;5067909;28;20621;-74
2024/02/22 11:36:30;;;;;;;1.00;0.70;;;10.40;86.90;;;;;;5063336;28;20208;-77
2024/02/22 11:39:06;;;;;;;1.80;1.00;;;10.40;86.80;;;;;;5069902;28;20517;-73
2024/02/22 11:41:32;;;;;;;1.10;0.67;;;10.40;86.80;;;;;;5068405;28;20893;-74
2024/02/22 11:44:06;;;;;;;1.77;0.70;;;10.40;87.00;;;;;;5076185;28;20462;-74
2024/02/22 11:46:38;;;;;;;1.00;0.67;;;10.40;87.00;;;;;;5070719;28;20854;-72
2024/02/22 11:49:05;;;;;;;1.73;0.83;;;10.40;86.80;;;;;;5066774;28;20450;-75
2024/02/22 11:51:31;;;;;;;1.20;0.60;;;10.40;87.00;;;;;;5062563;28;20449;-74
2024/02/22 11:53:57;;;;;;;1.20;0.67;;;10.40;86.90;;;;;;5065406;28;20484;-74
2024/02/22 11:56:23;;;;;;;1.20;0.87;;;10.40;87.00;;;;;;5066374;28;20442;-77
2024/02/22 11:58:49;;;;;;;1.20;0.90;;;10.50;87.10;;;;;;5065318;28;20192;-75
2024/02/22 12:01:15;;;;;;;1.50;1.00;;;10.60;87.30;;;;;;5063537;28;20469;-73
2024/02/22 12:03:43;;;;;;;1.70;1.20;;;10.70;86.80;;;;;;5065701;28;20215;-74
2024/02/22 12:06:11;;;;;;;1.40;0.70;;;10.90;86.50;;;;;;5068911;28;20470;-75
2024/02/22 12:08:37;;;;;;;1.40;1.10;;;11.00;85.90;;;;;;5065328;28;20418;-75
2024/02/22 12:11:04;;;;;;;1.00;0.90;;;11.10;85.50;;;;;;5064325;28;20461;-74
2024/02/22 12:13:30;;;;;;;1.37;0.70;;;11.30;85.00;;;;;;5065592;28;20529;-73
2024/02/22 12:16:10;;;;;;;1.30;1.00;;;11.30;83.80;;;;;;5061077;28;20430;-74
2024/02/22 12:18:38;;;;;;;1.50;1.20;;;11.30;83.80;;;;;;5062718;28;20435;-73
2024/02/22 12:21:09;;;;;;;1.00;0.70;;;11.40;83.60;;;;;;5068772;28;20458;-73
2024/02/22 12:23:35;;;;;;;4.00;0.80;;;11.40;83.30;;;;;;5064240;28;20888;-73
2024/02/22 12:26:06;;;;;;;2.03;0.80;;;11.50;82.70;;;;;;5062173;28;20426;-72
2024/02/22 12:28:33;;;;;;;1.20;0.70;;;11.50;82.10;;;;;;5070115;28;20423;-74
2024/02/22 12:30:59;;;;;;;0.93;0.60;;;11.50;81.80;;;;;;5076691;28;20466;-75
2024/02/22 12:33:25;;;;;;;14.23;2.30;;;11.50;81.50;;;;;;5066338;28;20423;-74
2024/02/22 12:35:51;;;;;;;1.33;0.70;;;11.50;81.40;;;;;;5068688;28;20442;-76
2024/02/22 12:38:16;;;;;;;1.83;0.80;;;11.50;81.20;;;;;;5070128;28;20866;-74
2024/02/22 12:40:45;;;;;;;0.83;0.50;;;11.50;80.50;;;;;;5065935;28;20203;-74
2024/02/22 12:43:15;;;;;;;1.57;0.60;;;11.60;80.80;;;;;;5070020;28;20793;-75
2024/02/22 12:45:40;;;;;;;9.03;0.77;;;11.70;80.00;;;;;;5066494;28;20430;-73
2024/02/22 12:48:07;;;;;;;2.27;0.60;;;11.60;79.60;;;;;;5065775;28;20441;-74